Pilot Magazine UKGA

About You

Log In Register UKGA membership

Flight planning

Flight planning New flightplan NOTAM map LARS map & NOTAMs Danger area, mil. & TRA activations Weather map GPS route download Find waypoints Your waypoints New waypoint

Forums

Forums Currently discussing "EASA Liceses post Brexit"

Other items

Articles Events Links News Surveys Tips Other users Feedback UKGA membership About UKGA

TAFs

UK

TAF EGAA 111701Z 1118/1218 34005KT 9999 SCT025 
      TEMPO 1122/1208 7000 PROB30 1200/1207 0400 FG BKN001
      
TAF EGAC 111701Z 1118/1203 35005KT 9999 FEW025 
      TEMPO 1122/1203 7000 PROB30 1200/1203 3000 BR
      
TAF EGAE 111701Z 1118/1120 06006KT 9999 FEW030
      
TAF EGBB 111657Z 1118/1218 04008KT 9999 FEW040 
      TEMPO 1118/1122 17020G35KT 2000 +TSGR PROB30 
      TEMPO 1122/1209 7000 
      TEMPO 1214/1218 3000 +TSGR
      
TAF EGBJ 111406Z 1115/1119 VRB03KT 9999 SCT040 PROB30 
      TEMPO 1115/1119 4000 TSRA
      
TAF EGCC 111655Z 1118/1224 VRB03KT 9999 FEW045 PROB30 
      TEMPO 1118/1123 VRB20G30KT 2000 +TSGR 
      TEMPO 1200/1209 8000 PROB30 
      TEMPO 1203/1207 4000 BR BKN003 PROB30 
      TEMPO 1212/1221 VRB20G30KT 2000 +TSGR
      
TAF EGCK 111657Z 1118/1203 VRB03KT 9999 FEW030 PROB40 
      TEMPO 1118/1203 4000 BR BKN003
      
TAF EGCN 111655Z 1118/1218 09007KT 9999 FEW045 PROB30 
      TEMPO 1118/1121 VRB20G30KT 2000 +TSGR 
      TEMPO 1200/1209 4000 BR BKN004 PROB30 
      TEMPO 1212/1218 VRB20G30KT 2000 +TSGR
      
TAF EGDM 111535Z 1115/1118 CNL
      
TAF EGDR 111401Z 1115/1124 35010KT 8000 HZ FEW003 
      BECMG 1115/1118 4000 BR BKN003 PROB40 
      TEMPO 1120/1124 0600 BCFG BKN000
      
TAF EGDY 111424Z 1115/1124 VRB05KT 9999 FEW050 PROB30 
      TEMPO 1115/1118 4000 +SHRA BKN050CB 
      BECMG 1120/1122 6000 HZ 
      TEMPO 1122/1124 4000 BR
      
TAF EGEC 110657Z 1107/1110 33005KT 9999 SCT020 PROB30 
      TEMPO 1107/1110 6000 SHRA BKN010
      
TAF EGEO 111355Z 1115/1118 30005KT 9999 FEW030= TAF EGNH 111357Z 1115/1120 33008KT 9999 FEW045 PROB40 
      TEMPO 1115/1120 7000 SHRA
      
TAF EGFF 111700Z 1118/1218 27005KT 9999 FEW040 PROB30 
      TEMPO 1118/1120 4000 +SHRA 
      TEMPO 1120/1208 6000 PROB30 
      TEMPO 1200/1207 4000 BR BKN004 PROB30 
      TEMPO 1212/1218 3000 +TSGR
      
TAF EGGD 111700Z 1118/1218 28008KT 9999 FEW030 PROB30 
      TEMPO 1118/1120 4000 +SHRA 
      TEMPO 1120/1208 6000 PROB40 
      TEMPO 1200/1208 4000 BR BKN004 PROB30 
      TEMPO 1212/1218 3000 +TSGR
      
TAF EGGP 111655Z 1118/1218 31007KT 9999 FEW045 PROB30 
      TEMPO 1118/1121 VRB20G30KT 2000 +TSGR PROB30 1200/1206 4000 BR BKN004 PROB30 
      TEMPO 1212/1218 VRB20G30KT 2000 +TSGR
      
TAF EGGW 111705Z 1118/1218 09004KT 9999 FEW045 PROB30 
      TEMPO 1200/1207 7000 PROB30 
      TEMPO 1214/1218 3000 +TSGR
      
TAF AMD EGHC 111329Z 1113/1116 36008KT 3000 BR SCT003 
      TEMPO 1113/1116 0600 FG BKN000
      
TAF EGHE 111405Z 1115/1118 34013KT 7000 BKN003 PROB30 
      TEMPO 1115/1118 SCT003
      
TAF EGHH 111658Z 1118/1121 16009KT 9999 FEW040
      
TAF EGHI 111406Z 1115/1121 20008KT 9999 FEW040
      
TAF AMD EGHQ 111743Z 1118/1124 35007KT 0300 FG BKN001 
      TEMPO 1118/1119 6000 BKN002 PROB30 
      TEMPO 1119/1122 0100 +SHRA BKN002 BKN012CB
      
TAF EGJA 111703Z 1118/1203 04008KT 5000 HZ FEW040CB PROB40 
      TEMPO 1118/1203 8000
      
TAF EGJB 111703Z 1118/1203 03006KT 9999 FEW040CB PROB40 
      TEMPO 1118/1203 6000
      
TAF EGJJ 111703Z 1118/1203 03006KT 9999 FEW040CB PROB30 
      TEMPO 1118/1203 8000
      
TAF EGKA 111402Z 1115/1118 15005KT 8000 FEW045 
      TEMPO 1115/1118 9999 PROB30 
      TEMPO 1115/1118 7000 SHRA
      
TAF EGKB 111704Z 1118/1122 VRB03KT CAVOK PROB30 1120/1122 8000
      
TAF EGKK 111656Z 1118/1224 VRB04KT CAVOK PROB30 1202/1207 8000 PROB30 
      TEMPO 1212/1224 3000 +SHRA TSRA
      
TAF EGLC 111704Z 1118/1203 09005KT CAVOK PROB30 1200/1203 8000
      
TAF EGLF 111704Z 1118/1123 18005KT CAVOK
      
TAF EGLL 111652Z 1118/1224 10004KT CAVOK PROB40 
      TEMPO 1202/1209 6000 PROB30 
      TEMPO 1212/1219 3000 +TSRA
      
TAF EGMC 111704Z 1118/1203 06005KT CAVOK PROB40 1121/1203 7000
      
TAF EGMD 111704Z 1118/1203 07008KT CAVOK 
      TEMPO 1120/1203 7000
      
TAF EGNH 111657Z 1118/1120 33008KT 9999 FEW045 PROB40 
      TEMPO 1118/1120 7000 SHRA
      
TAF EGNJ 111657Z 1118/1203 06008KT 9999 FEW045 PROB40 
      TEMPO 1118/1121 7000 SHRA 
      TEMPO 1121/1203 4000 BR BKN005 PROB30 1200/1203 0300 FG BKN001
      
TAF EGNM 111655Z 1118/1218 07008KT 9999 FEW045 PROB30 
      TEMPO 1118/1121 VRB20G30KT 2000 +TSGR 
      TEMPO 1200/1209 4000 BR BKN003 PROB30 
      TEMPO 1212/1218 VRB20G30KT 2000 +TSGR
      
TAF EGNO 111104Z 1112/1121 08006KT 9999 FEW045 
      BECMG 1112/1115 32010KT PROB40 
      TEMPO 1112/1121 7000 SHRA
      
TAF AMD EGNR 111538Z 1115/1119 31010KT 9999 FEW045 PROB30 
      TEMPO 1115/1119 7000 SHRA
      
TAF EGNS 111700Z 1118/1121 VRB06KT 9999 FEW030
      
TAF EGNT 111655Z 1118/1218 06006KT 9999 FEW045 PROB30 
      TEMPO 1118/1121 VRB20G30KT 2000 +TSGR 
      BECMG 1121/1124 6000 BKN003 PROB30 1200/1207 0300 FG OVC001 
      BECMG 1207/1210 9999 FEW025 
      TEMPO 1210/1212 8000 BKN009
      
TAF EGNV 111657Z 1118/1121 05008KT 9999 FEW045 PROB30 
      TEMPO 1118/1121 7000 SHRA
      
TAF EGNX 111657Z 1118/1218 03008KT 9999 FEW030 PROB30 
      TEMPO 1118/1122 17020G35KT 3000 +TSGR PROB30 
      TEMPO 1122/1209 7000 
      TEMPO 1214/1218 3000 +TSGR
      
TAF EGOS 111333Z 1115/1119 10005KT 9999 FEW020 PROB30 
      TEMPO 1115/1119 3000 +TSRA BKN045CB
      
TAF EGOV 111336Z 1115/1119 27005KT 9999 FEW001 PROB30 
      TEMPO 1115/1119 0400 FG BKN000
      
TAF EGOW 101342Z 1015/1018 VRB08KT CAVOK PROB30 
      TEMPO 1015/1018 VRB15G25KT 3000 TSGS SCT025 BKN070CB
      
TAF EGPA 111659Z 1118/1203 13012KT 9999 FEW007 SCT040 
      TEMPO 1118/1203 5000 SHRA BKN007 PROB30 
      TEMPO 1118/1203 14015G25KT 2000 +SHRA +TSRA BKN004
      
TAF EGPB 111659Z 1118/1203 12012KT 9999 FEW007 SCT040 
      TEMPO 1118/1203 5000 SHRA BKN007 PROB40 
      TEMPO 1118/1124 13018G28KT 2000 +SHRA +TSRA BKN004 PROB30 
      TEMPO 1200/1203 0300 FG BKN001
      
TAF EGPC 111659Z 1118/1203 14009KT 9999 FEW010 SCT035 
      TEMPO 1118/1203 5000 SHRA BKN010 PROB30 
      TEMPO 1118/1203 14015G25KT 2000 +SHRA +TSRA BKN004
      
TAF EGPD 111657Z 1118/1218 13006KT 9999 SCT006 
      TEMPO 1118/1121 6000 SHRA BKN006 PROB30 
      TEMPO 1118/1121 2000 +SHRA +TSGS BKN004 
      TEMPO 1121/1212 4000 BR BKN005 PROB40 1121/1209 0300 FG VV/// PROB30 
      TEMPO 1121/1208 +TSGS +SHRA PROB30 
      TEMPO 1215/1218 BKN007
      
TAF EGPE 111659Z 1118/1203 05006KT 9999 FEW004 SCT008 
      TEMPO 1118/1203 5000 SHRA BKN008 PROB30 
      TEMPO 1118/1203 2000 +SHRA +TSRA BKN004
      
TAF EGPF 111657Z 1118/1218 07007KT 9999 SCT045 PROB30 
      TEMPO 1118/1122 6000 SHRA PROB40 
      TEMPO 1122/1210 BKN006 
      BECMG 1212/1215 30010KT
      
TAF EGPH 111657Z 1118/1218 06007KT 9999 SCT040 PROB30 
      TEMPO 1118/1124 3000 +SHRA +TSRA BKN004 
      TEMPO 1200/1210 4000 BR BKN005 PROB30 
      TEMPO 1200/1209 0300 FG VV///
      
TAF EGPI 111701Z 1118/1203 29007KT 9999 FEW015 SCT040 
      BECMG 1118/1121 36010KT
      
TAF EGPK 111657Z 1118/1218 29007KT 9999 SCT045 PROB30 
      TEMPO 1118/1121 6000 SHRA PROB30 
      TEMPO 1121/1210 BKN008
      
TAF EGPL 111629Z 1115/1124 CNL
      
TAF EGPN 111701Z 1118/1120 09007KT 9999 FEW010 SCT040 
      TEMPO 1118/1120 6000 SHRA BKN010 PROB30 
      TEMPO 1118/1120 3000 +TSRA +SHRA BKN004
      
TAF EGPO 111659Z 1118/1203 05006KT 9999 FEW020 
      TEMPO 1118/1203 4000 BR BKN003 PROB30 1121/1203 0300 FG VV///
      
TAF EGPU 111701Z 1118/1203 23007KT 9999 FEW040 
      BECMG 1121/1124 36010KT
      
TAF EGQK 111310Z 1113/1206 CNL
      
TAF EGQL 111605Z 1118/1203 10010KT 9999 FEW005 PROB30 
      TEMPO 1118/1123 VRB15G25KT 3000 +TSRA SCT005 BKN060CB 
      BECMG 1120/1123 0500 FG BKN000 PROB30 
      TEMPO 1123/1203 VRB15G25KT 3000 +TSRA FEW005 BKN060CB
      
TAF EGQS 111629Z 1118/1212 26005KT 9999 FEW005 SCT045 PROB40 
      TEMPO 1118/1207 4000 +SHRA +TSRA BKN060CB PROB30 
      TEMPO 1118/1123 1500 BR SCT003 
      BECMG 1123/1202 0500 FG BKN001 
      BECMG 1207/1210 9999 NSW FEW004 PROB40 
      TEMPO 1210/1212 3000 BR SCT004
      
TAF EGSC 111407Z 1115/1117 05005KT CAVOK PROB30 
      TEMPO 1115/1117 VRB15G25KT 3000 +SHRA TSGR
      
TAF EGSH 111654Z 1118/1203 09005KT 9999 FEW045 PROB30 
      TEMPO 1200/1203 4000 BR
      
TAF EGSS 111705Z 1118/1224 10006KT 9999 FEW045 PROB30 
      TEMPO 1200/1207 7000 PROB30 
      TEMPO 1214/1224 3000 +TSGR
      
TAF AMD EGSY 111457Z 1115/1116 CNL
      
TAF EGTC 111407Z 1115/1119 07006KT CAVOK PROB30 
      TEMPO 1115/1119 VRB15G25KT 3000 +SHRA TSGR
      
TAF EGTE 111659Z 1118/1202 17007KT 9999 FEW040 
      TEMPO 1121/1202 7000 PROB30 
      TEMPO 1200/1202 3000 BR
      
TAF EGTK 111654Z 1118/1120 VRB04KT CAVOK PROB30 
      TEMPO 1118/1120 7000 SHRA
      
TAF EGUB 101927Z 1021/1024 VRB03KT CAVOK
      
TAF EGUL 111400Z 1114/1220 07012KT 9999 SCT180 QNH2992INS 
      BECMG 1118/1119 11009KT 9999 SCT060 QNH2991INS 
      BECMG 1202/1203 VRB06KT 8000 BR FEW060 QNH2993INS 
      BECMG 1207/1208 08012KT 9999 NSW SCT060 QNH2985INS TX31/1115Z TN19/1205Z LAST NO 
      AMDS AFT 1119 NEXT 1205
      
TAF EGUN 111200Z 1112/1218 07010G15KT 9999 SCT100 QNH2991INS 
      TEMPO 1112/1115 8000 -SHRA BKN070 
      BECMG 1118/1119 11009KT 9999 SCT050 QNH2991INS 
      BECMG 1202/1203 13003KT 8000 BR FEW070 QNH2993INS 
      BECMG 1208/1209 10010G15KT 9999 NSW SCT100 QNH2990INS TX32/1115Z TN17/1204Z
      
TAF EGUW 111636Z 1118/1201 11008KT CAVOK PROB30 1200/1201 5000 HZ
      
TAF EGVN 111645Z 1118/1218 VRB05KT CAVOK PROB30 
      TEMPO 1118/1120 VRB15G25KT 3000 +TSRA SCT060CB 
      BECMG 1202/1204 4000 HZ 
      BECMG 1206/1209 CAVOK PROB30 
      TEMPO 1212/1218 3000 +TSRA BKN065CB
      
TAF EGVO 111626Z 1118/1206 16010KT CAVOK PROB40 
      TEMPO 1118/1121 7000 SHRA BKN070CB
      
TAF EGVP 110034Z 1023/1102 CNL
      
TAF AMD EGWC 101345Z 1013/1018 CNL
      
TAF EGWU 111631Z 1118/1212 VRB05KT CAVOK PROB30 
      TEMPO 1118/1120 VRB15G25KT 4000 TSRA TSGS SCT050CB PROB30 1203/1207 7000 HZ PROB30 
      TEMPO 1210/1212 4000 TSRA SCT060CB
      
TAF EGXC 111618Z 1118/1212 08008KT CAVOK PROB40 1123/1208 4000 HZ PROB30 1202/1207 2000 BR SCT003
      
TAF EGXE 111353Z 1115/1118 02008KT CAVOK PROB30 
      TEMPO 1115/1118 VRB15G25KT 3000 TSGR BKN040CB
      
TAF EGXP 111355Z 1115/1124 10010KT CAVOK PROB30 
      TEMPO 1115/1118 BKN050CB
      
TAF EGXU 111031Z 1112/1118 08008KT CAVOK PROB30 
      TEMPO 1112/1118 5000 SHRA
      
TAF EGXW 111654Z 1118/1212 08009KT CAVOK PROB30 1123/1202 4000 BR 
      BECMG 1202/1205 0500 FG OVC001 
      BECMG 1206/1209 CAVOK
      
TAF EGYD 111324Z 1115/1118 09008KT CAVOK PROB30 
      TEMPO 1115/1118 3000 +TSGS SCT050CB
      
TAF EGYM 111055Z 1112/1121 11008KT CAVOK PROB30 
      TEMPO 1112/1118 7000 SHRA SCT040
      
TAF EGYP 111628Z 1118/1212 27010KT 9999 FEW040 
      BECMG 1120/1124 34015KT PROB40 
      TEMPO 1121/1203 5000 -SHRASN SCT012 PROB30 
      TEMPO 1123/1203 3000 SHRASN SCT004 PROB30 
      TEMPO 1210/1212 3000 SHRASN SCT004
      

About You

Log In Register UKGA membership

Airfields

Interactive airfield map Search by name Search by postcode Search by location Fuel prices Pilot reviews Latest
(No favourites selected)

Flight planning

Flight planning New flightplan NOTAM map LARS map & NOTAMs Danger area, mil. & TRA activations Weather map GPS route download Find waypoints Your waypoints New waypoint

Forums

Forums Currently discussing "EASA Liceses post Brexit"

Other items

Articles Events Links News Surveys Tips Other users Feedback UKGA membership About UKGA